Time;durP1;ratioP1;P1;durP2;ratioP2;P2;SDS_P1;SDS_P2;PMS_P1;PMS_P2;Temp;Humidity;BMP_temperature;BMP_pressure;BME280_temperature;BME280_humidity;BME280_pressure;Samples;Min_cycle;Max_cycle;Signal;HPM_P1;HPM_P2
2022/09/12 00:01:20;;;;;;;;;15.33;15.00;;;;;17.26;70.73;101717.31;5021869;28;9148;-67
2022/09/12 00:03:50;;;;;;;;;15.00;14.00;;;;;17.27;70.72;101713.53;5025633;28;9161;-67
2022/09/12 00:06:20;;;;;;;;;15.00;12.67;;;;;17.27;70.60;101713.53;5020881;28;9174;-67
2022/09/12 00:08:50;;;;;;;;;18.00;16.67;;;;;17.25;70.65;101718.34;5018015;28;9265;-66
2022/09/12 00:11:17;;;;;;;;;15.33;13.33;;;;;17.24;70.96;101713.13;5030138;28;9278;-66
2022/09/12 00:13:43;;;;;;;;;16.00;14.67;;;;;17.22;70.89;101713.38;5017828;28;9180;-66
2022/09/12 00:16:20;;;;;;;;;17.00;17.00;;;;;17.19;71.10;101712.97;5010126;28;9353;-66
2022/09/12 00:18:47;;;;;;;;;15.00;15.00;;;;;17.17;70.76;101715.03;5021873;28;10050;-66
2022/09/12 00:21:16;;;;;;;;;14.00;14.00;;;;;17.14;70.93;101708.16;5025872;28;9366;-66
2022/09/12 00:23:43;;;;;;;;;16.33;16.00;;;;;17.12;70.79;101696.66;5010152;28;9179;-66
2022/09/12 00:26:10;;;;;;;;;15.67;15.67;;;;;17.14;71.39;101705.44;5014473;28;9409;-66
2022/09/12 00:28:38;;;;;;;;;19.00;17.67;;;;;17.12;71.13;101702.09;5016460;28;9240;-66
2022/09/12 00:31:09;;;;;;;;;18.00;18.00;;;;;17.11;71.14;101702.31;5017314;28;9291;-65
2022/09/12 00:33:35;;;;;;;;;15.33;15.33;;;;;17.10;70.94;101704.22;5014684;28;9113;-66
2022/09/12 00:36:13;;;;;;;;;20.00;18.00;;;;;17.10;70.96;101704.22;5015080;28;9206;-65
2022/09/12 00:38:40;;;;;;;;;23.67;20.33;;;;;17.10;71.48;101692.50;5017751;28;9110;-65
2022/09/12 00:41:15;;;;;;;;;19.00;15.00;;;;;17.10;71.39;101695.22;5034482;28;9085;-65
2022/09/12 00:43:45;;;;;;;;;18.67;17.33;;;;;17.10;71.11;101696.06;5029902;28;9239;-65
2022/09/12 00:46:24;;;;;;;;;20.33;17.67;;;;;17.08;71.01;101692.69;5014443;28;9341;-65
2022/09/12 00:48:57;;;;;;;;;13.67;13.67;;;;;17.05;71.17;101685.81;5014606;28;9154;-65
2022/09/12 00:51:25;;;;;;;;;17.67;17.67;;;;;17.03;71.38;101687.09;5018612;28;9432;-65
2022/09/12 00:53:54;;;;;;;;;22.67;20.00;;;;;17.01;71.03;101690.03;5013940;28;9342;-65
2022/09/12 00:56:22;;;;;;;;;18.67;18.67;;;;;16.99;71.40;101681.22;5013662;28;9312;-67
2022/09/12 00:59:00;;;;;;;;;22.00;20.00;;;;;16.97;71.35;101677.88;5013961;28;9521;-66
2022/09/12 01:01:27;;;;;;;;;19.67;19.67;;;;;16.97;71.13;101687.94;5013847;28;9333;-65
2022/09/12 01:03:58;;;;;;;;;19.33;17.67;;;;;16.96;71.64;101675.38;5012694;28;9235;-65
2022/09/12 01:06:28;;;;;;;;;22.00;21.00;;;;;16.95;71.61;101674.56;4992238;28;9337;-65
2022/09/12 01:08:56;;;;;;;;;20.00;18.67;;;;;16.98;71.58;101676.03;5008011;28;9304;-65
2022/09/12 01:11:22;;;;;;;;;20.67;19.67;;;;;16.99;71.34;101666.81;5017095;28;9536;-66
2022/09/12 01:13:49;;;;;;;;;18.00;18.00;;;;;17.00;71.38;101674.72;5027290;28;9405;-65
2022/09/12 01:16:16;;;;;;;;;22.67;21.67;;;;;17.02;71.39;101674.53;5019188;28;9313;-65
2022/09/12 01:19:10;;;;;;;;;20.33;19.67;;;;;17.06;71.78;101664.88;5013113;28;9239;-65
2022/09/12 01:22:00;;;;;;;;;19.00;19.00;;;;;17.08;71.41;101665.50;5003807;28;9314;-65
2022/09/12 01:24:38;;;;;;;;;19.00;15.67;;;;;17.10;71.36;101657.97;5017451;28;9238;-65
2022/09/12 01:27:21;;;;;;;;;24.00;19.67;;;;;17.12;71.21;101661.28;4993539;28;9983;-65
2022/09/12 01:30:18;;;;;;;;;23.00;20.00;;;;;17.14;71.27;101663.81;5014121;28;9725;-65
2022/09/12 01:33:05;;;;;;;;;20.00;20.00;;;;;17.14;71.27;101669.25;4993585;28;9493;-65
2022/09/12 01:35:44;;;;;;;;;24.00;22.33;;;;;17.14;71.09;101661.91;5005817;28;9496;-66
2022/09/12 01:38:22;;;;;;;;;24.00;20.33;;;;;17.14;71.05;101656.47;5011420;28;9402;-65
2022/09/12 01:41:11;;;;;;;;;21.67;21.67;;;;;17.13;71.20;101657.50;5013140;28;9337;-66
2022/09/12 01:43:47;;;;;;;;;24.50;22.50;;;;;17.14;71.12;101661.09;5015961;28;9318;-65
2022/09/12 01:46:18;;;;;;;;;19.00;18.00;;;;;17.13;71.30;101649.34;5032393;28;9570;-66
2022/09/12 01:48:59;;;;;;;;;24.00;23.00;;;;;17.14;71.13;101639.31;5015763;28;10059;-66
2022/09/12 01:51:34;;;;;;;;;23.25;22.75;;;;;17.14;70.95;101642.03;5010579;28;9369;-66
2022/09/12 01:54:08;;;;;;;;;25.33;23.00;;;;;17.13;71.07;101635.75;5014333;28;10242;-66
2022/09/12 01:56:39;;;;;;;;;27.50;24.00;;;;;17.14;70.93;101648.31;5012631;28;9309;-66
2022/09/12 01:59:15;;;;;;;;;22.00;21.00;;;;;17.12;71.21;101639.53;5019854;28;9482;-66
2022/09/12 02:01:57;;;;;;;;;29.50;25.75;;;;;17.12;70.89;101633.25;5016676;28;9378;-66
2022/09/12 02:04:29;;;;;;;;;24.75;24.50;;;;;17.12;71.07;101628.63;5012258;28;9601;-66
2022/09/12 02:07:07;;;;;;;;;27.75;25.00;;;;;17.12;70.88;101620.47;5014806;28;9518;-65
2022/09/12 02:09:46;;;;;;;;;19.67;19.33;;;;;17.11;71.25;101613.38;5020816;28;9522;-66
2022/09/12 02:12:18;;;;;;;;;25.00;24.00;;;;;17.11;71.22;101618.00;5018614;28;9300;-65
2022/09/12 02:14:54;;;;;;;;;27.50;24.50;;;;;17.13;70.86;101615.88;5024004;28;10006;-66
2022/09/12 02:17:25;;;;;;;;;26.50;26.25;;;;;17.11;70.94;101618.81;5009900;28;9519;-66
2022/09/12 02:19:56;;;;;;;;;24.25;24.25;;;;;17.09;70.82;101622.78;5018240;28;9472;-66
2022/09/12 02:22:26;;;;;;;;;26.00;25.75;;;;;17.06;71.10;101626.81;5016195;28;9402;-66
2022/09/12 02:24:57;;;;;;;;;29.67;26.00;;;;;17.05;70.99;101609.66;5030832;28;9456;-66
2022/09/12 02:27:36;;;;;;;;;21.33;20.67;;;;;17.07;71.07;101624.91;5009070;28;9343;-65
2022/09/12 02:30:05;;;;;;;;;23.25;23.00;;;;;17.04;70.99;101613.41;5026751;28;9312;-65
2022/09/12 02:32:39;;;;;;;;;24.00;20.75;;;;;17.03;71.04;101614.47;5013280;28;9468;-65
2022/09/12 02:35:13;;;;;;;;;23.75;22.25;;;;;17.02;71.45;101611.97;5013541;28;9382;-65
2022/09/12 02:37:45;;;;;;;;;28.75;28.75;;;;;17.00;71.40;101616.78;5011360;28;9514;-65
2022/09/12 02:40:12;;;;;;;;;27.75;26.25;;;;;16.99;71.36;101606.97;5012583;28;9401;-65
2022/09/12 02:42:39;;;;;;;;;20.00;20.00;;;;;16.98;71.45;101606.13;5014073;28;9422;-65
2022/09/12 02:45:07;;;;;;;;;21.00;20.33;;;;;16.98;71.22;101600.69;5018336;28;9430;-65
2022/09/12 02:47:39;;;;;;;;;25.50;21.00;;;;;16.98;71.41;101597.97;5012634;28;9254;-64
2022/09/12 02:50:06;;;;;;;;;20.00;19.00;;;;;16.98;71.31;101597.16;5019252;28;9378;-65
2022/09/12 02:52:34;;;;;;;;;20.00;20.00;;;;;16.98;71.13;101592.53;5012524;28;9348;-64
2022/09/12 02:55:04;;;;;;;;;21.67;18.33;;;;;17.01;70.98;101593.97;5026004;28;9393;-64
2022/09/12 02:57:31;;;;;;;;;25.50;24.50;;;;;17.00;70.61;101586.88;5019453;28;9468;-67
2022/09/12 03:00:00;;;;;;;;;22.33;21.00;;;;;17.00;70.27;101593.13;5018832;28;9460;-65
2022/09/12 03:02:45;;;;;;;;;22.67;18.33;;;;;17.00;70.65;101589.59;5016186;28;9258;-65
2022/09/12 03:05:21;;;;;;;;;16.00;15.50;;;;;16.98;70.80;101592.53;5011082;28;9241;-65
2022/09/12 03:07:59;;;;;;;;;21.00;18.67;;;;;16.99;70.82;101583.31;5019998;28;9570;-65
2022/09/12 03:10:38;;;;;;;;;19.67;19.33;;;;;16.99;70.88;101583.31;5022036;28;9385;-65
2022/09/12 03:13:25;;;;;;;;;22.33;22.33;;;;;17.00;70.34;101590.41;5028542;28;9497;-65
2022/09/12 03:16:07;;;;;;;;;22.00;20.25;;;;;17.01;70.54;101583.09;5019022;28;9454;-64
2022/09/12 03:19:05;;;;;;;;;24.25;22.25;;;;;16.96;70.40;101581.03;5010382;28;10228;-65
2022/09/12 03:21:59;;;;;;;;;27.00;25.50;;;;;16.94;70.83;101579.59;5013835;28;9532;-65
2022/09/12 03:24:33;;;;;;;;;22.67;21.33;;;;;16.92;70.72;101579.78;5020801;28;9604;-64
2022/09/12 03:27:15;;;;;;;;;29.50;24.50;;;;;16.92;70.74;101582.50;5014741;28;9538;-65
2022/09/12 03:29:43;;;;;;;;;28.25;24.25;;;;;16.91;70.57;101585.47;5019934;28;9525;-64
2022/09/12 03:32:09;;;;;;;;;28.00;22.67;;;;;16.90;70.87;101581.91;5013548;28;9560;-65
2022/09/12 03:34:36;;;;;;;;;26.75;25.00;;;;;16.86;70.92;101575.25;5011139;28;9400;-65
2022/09/12 03:37:03;;;;;;;;;30.50;25.50;;;;;16.87;70.96;101571.47;5010341;28;10322;-65
2022/09/12 03:39:29;;;;;;;;;26.25;22.25;;;;;16.89;70.89;101565.78;5018067;28;9645;-64
2022/09/12 03:41:56;;;;;;;;;33.50;31.75;;;;;16.88;70.90;101564.13;5010751;28;10342;-65
2022/09/12 03:44:24;;;;;;;;;28.50;25.75;;;;;16.86;70.87;101560.81;5020322;28;9806;-65
2022/09/12 03:46:50;;;;;;;;;28.25;27.25;;;;;16.86;71.38;101555.38;5016136;28;10410;-65
2022/09/12 03:49:17;;;;;;;;;26.00;23.50;;;;;16.86;71.21;101555.38;5024381;28;10462;-65
2022/09/12 03:51:43;;;;;;;;;23.00;23.00;;;;;16.86;71.13;101555.38;5022244;28;9478;-65
2022/09/12 03:54:10;;;;;;;;;25.25;20.50;;;;;16.86;71.14;101549.94;5029093;28;9578;-65
2022/09/12 03:56:37;;;;;;;;;27.50;24.75;;;;;16.84;71.06;101555.56;5018893;28;9549;-66
2022/09/12 03:59:05;;;;;;;;;30.25;24.00;;;;;16.84;71.41;101558.28;5019777;28;9585;-65
2022/09/12 04:01:32;;;;;;;;;25.25;23.50;;;;;16.83;71.29;101558.53;5022962;28;9553;-67
2022/09/12 04:03:59;;;;;;;;;27.75;26.00;;;;;16.82;71.22;101554.16;5014348;28;9388;-67
2022/09/12 04:06:25;;;;;;;;;27.75;22.75;;;;;16.80;71.60;101557.91;5019176;28;9592;-67
2022/09/12 04:08:53;;;;;;;;;29.25;25.25;;;;;16.78;71.19;101557.28;5011416;28;9651;-65
2022/09/12 04:11:21;;;;;;;;;25.25;24.25;;;;;16.77;71.68;101563.78;5017785;28;9476;-65
2022/09/12 04:13:48;;;;;;;;;28.25;27.00;;;;;16.74;71.61;101556.06;5020761;28;9591;-67
2022/09/12 04:16:16;;;;;;;;;21.50;18.75;;;;;16.74;71.82;101553.34;5011079;28;9566;-65
2022/09/12 04:18:44;;;;;;;;;28.00;25.50;;;;;16.75;71.39;101565.88;5010407;28;9525;-65
2022/09/12 04:21:14;;;;;;;;;32.00;29.25;;;;;16.73;71.56;101565.28;5018567;28;9467;-65
2022/09/12 04:23:41;;;;;;;;;25.75;24.50;;;;;16.74;71.77;101557.94;5023925;28;9601;-65
2022/09/12 04:26:09;;;;;;;;;27.00;25.50;;;;;16.73;71.96;101562.56;5013587;28;9616;-66
2022/09/12 04:28:37;;;;;;;;;25.25;25.25;;;;;16.73;72.18;101565.28;5011282;28;9544;-65
2022/09/12 04:31:06;;;;;;;;;27.50;26.00;;;;;16.75;72.28;101557.72;5014934;28;9696;-65
2022/09/12 04:33:36;;;;;;;;;24.25;22.50;;;;;16.78;72.25;101562.72;5013178;28;9483;-66
2022/09/12 04:36:15;;;;;;;;;25.67;25.33;;;;;16.78;71.91;101565.44;5029913;28;9609;-65
2022/09/12 04:38:44;;;;;;;;;24.00;23.25;;;;;16.76;71.79;101553.13;5016546;28;9408;-65
2022/09/12 04:41:16;;;;;;;;;37.25;33.75;;;;;16.71;71.82;101556.47;5010392;28;10252;-64
2022/09/12 04:43:46;;;;;;;;;33.75;31.25;;;;;16.73;72.13;101553.53;5013823;28;9602;-64
2022/09/12 04:46:16;;;;;;;;;32.25;26.75;;;;;16.74;71.97;101553.34;5029390;28;10436;-65
2022/09/12 04:48:42;;;;;;;;;33.25;30.50;;;;;16.75;71.65;101555.00;5027551;28;9439;-65
2022/09/12 04:51:12;;;;;;;;;28.00;28.00;;;;;16.76;71.78;101548.50;5010261;28;9795;-64
2022/09/12 04:53:39;;;;;;;;;26.00;24.25;;;;;16.77;71.48;101552.91;5003771;28;9623;-65
2022/09/12 04:56:07;;;;;;;;;34.50;33.00;;;;;16.76;71.85;101547.69;5010789;28;10169;-65
2022/09/12 04:58:35;;;;;;;;;32.33;25.00;;;;;16.74;71.32;101542.47;5010265;28;9605;-65
2022/09/12 05:01:06;;;;;;;;;28.00;25.25;;;;;16.76;71.61;101544.97;5016187;28;9498;-65
2022/09/12 05:03:34;;;;;;;;;24.00;23.33;;;;;16.73;71.54;101543.53;5018027;28;9475;-64
2022/09/12 05:06:08;;;;;;;;;28.25;24.00;;;;;16.74;71.32;101545.19;5000911;28;9381;-64
2022/09/12 05:08:34;;;;;;;;;23.67;22.00;;;;;16.74;71.60;101553.34;5013685;28;9340;-65
2022/09/12 05:11:13;;;;;;;;;28.25;25.75;;;;;16.76;71.44;101542.25;5030623;28;9381;-65
2022/09/12 05:13:40;;;;;;;;;24.50;22.50;;;;;16.76;71.23;101553.94;5016190;28;9564;-65
2022/09/12 05:16:10;;;;;;;;;22.00;21.67;;;;;16.72;71.60;101544.53;5017898;28;9556;-65
2022/09/12 05:18:37;;;;;;;;;25.33;20.00;;;;;16.71;71.13;101548.31;5027603;28;9383;-65
2022/09/12 05:21:06;;;;;;;;;25.00;22.25;;;;;16.71;71.57;101542.88;5015471;28;9450;-65
2022/09/12 05:23:33;;;;;;;;;29.00;27.00;;;;;16.70;71.30;101541.22;5013886;28;9513;-65
2022/09/12 05:26:01;;;;;;;;;34.25;26.50;;;;;16.71;71.54;101542.88;5012416;28;9561;-64
2022/09/12 05:28:33;;;;;;;;;27.33;25.33;;;;;16.71;71.49;101540.16;5012697;28;9551;-65
2022/09/12 05:31:11;;;;;;;;;30.25;27.50;;;;;16.69;71.28;101544.13;5022964;28;9479;-66
2022/09/12 05:33:40;;;;;;;;;23.67;21.67;;;;;16.66;71.66;101536.44;5004424;28;9573;-67
2022/09/12 05:36:10;;;;;;;;;32.00;28.50;;;;;16.66;71.44;101534.53;5018374;28;9386;-66
2022/09/12 05:38:37;;;;;;;;;29.25;27.00;;;;;16.65;71.30;101532.00;5013591;28;9751;-67
2022/09/12 05:41:05;;;;;;;;;28.00;27.75;;;;;16.65;71.68;101529.31;5012662;28;9754;-67
2022/09/12 05:43:33;;;;;;;;;24.00;22.00;;;;;16.64;71.82;101524.91;5015931;28;9472;-67
2022/09/12 05:46:04;;;;;;;;;27.00;25.00;;;;;16.64;71.55;101525.75;5032890;28;9403;-66
2022/09/12 05:48:34;;;;;;;;;27.75;25.25;;;;;16.66;71.48;101529.09;5017084;28;10197;-64
2022/09/12 05:51:07;;;;;;;;;25.33;23.33;;;;;16.68;71.54;101526.16;5026542;28;9579;-66
2022/09/12 05:53:36;;;;;;;;;21.67;20.00;;;;;16.71;71.32;101539.31;5018462;28;9490;-65
2022/09/12 05:56:03;;;;;;;;;27.50;25.25;;;;;16.72;71.45;101538.25;5014972;28;9508;-65
2022/09/12 05:58:30;;;;;;;;;21.75;21.50;;;;;16.73;71.45;101535.38;5027008;28;9399;-65
2022/09/12 06:01:01;;;;;;;;;32.00;28.25;;;;;16.72;71.03;101540.97;5014501;28;10170;-65
2022/09/12 06:03:28;;;;;;;;;26.50;22.75;;;;;16.70;71.43;101543.94;5022639;28;9641;-65
2022/09/12 06:05:54;;;;;;;;;23.00;21.00;;;;;16.69;71.17;101547.69;5020941;28;9397;-65
2022/09/12 06:08:20;;;;;;;;;22.00;21.50;;;;;16.68;71.25;101543.28;5012907;28;9542;-65
2022/09/12 06:10:48;;;;;;;;;29.00;22.67;;;;;16.68;71.21;101537.84;5030341;28;9464;-64
2022/09/12 06:13:14;;;;;;;;;27.25;27.00;;;;;16.68;71.33;101543.28;5031793;28;9393;-66
2022/09/12 06:15:41;;;;;;;;;29.00;26.75;;;;;16.68;71.32;101532.41;5032131;28;10136;-67
2022/09/12 06:18:07;;;;;;;;;22.67;21.33;;;;;16.69;71.31;101528.69;5031852;28;9536;-66
2022/09/12 06:20:35;;;;;;;;;27.33;26.00;;;;;16.69;71.39;101528.69;5032722;28;9383;-65
2022/09/12 06:23:02;;;;;;;;;26.25;26.25;;;;;16.70;71.79;101530.34;5023131;28;9571;-66
2022/09/12 06:25:28;;;;;;;;;27.25;24.00;;;;;16.71;71.62;101520.28;5017429;28;9463;-66
2022/09/12 06:27:54;;;;;;;;;25.00;23.00;;;;;16.73;71.40;101516.34;5031615;28;9390;-66
2022/09/12 06:30:21;;;;;;;;;26.00;19.67;;;;;16.78;71.40;101523.84;5031956;28;9366;-66
2022/09/12 06:32:50;;;;;;;;;27.00;24.67;;;;;16.79;71.68;101520.88;5028987;28;9315;-65
2022/09/12 06:35:17;;;;;;;;;23.25;23.25;;;;;16.84;71.31;101525.66;5012018;28;9569;-65
2022/09/12 06:37:44;;;;;;;;;24.25;22.75;;;;;16.88;71.68;101523.34;5011878;28;9465;-65
2022/09/12 06:40:11;;;;;;;;;23.00;20.00;;;;;16.89;71.38;101523.13;5012116;28;9604;-65
2022/09/12 06:42:37;;;;;;;;;23.25;22.75;;;;;16.92;71.34;101530.00;5011887;28;9469;-66
2022/09/12 06:45:04;;;;;;;;;30.50;26.00;;;;;16.91;71.49;101531.06;5011652;28;9478;-65
2022/09/12 06:47:30;;;;;;;;;35.50;29.00;;;;;16.90;71.13;101532.97;5011445;28;9549;-65
2022/09/12 06:49:57;;;;;;;;;28.25;26.25;;;;;16.89;71.19;101527.72;5012073;28;9861;-64
2022/09/12 06:52:23;;;;;;;;;21.33;19.00;;;;;16.88;71.16;101526.06;5026964;28;9520;-65
2022/09/12 06:54:50;;;;;;;;;26.00;25.33;;;;;16.90;71.57;101518.53;5012056;28;9263;-65
2022/09/12 06:57:16;;;;;;;;;31.00;26.50;;;;;16.91;71.01;101522.91;5014999;28;9337;-65
2022/09/12 06:59:43;;;;;;;;;27.00;23.75;;;;;16.96;71.24;101529.34;5016581;28;9528;-65
2022/09/12 07:02:10;;;;;;;;;33.00;28.00;;;;;17.01;71.32;101525.97;5015354;28;9472;-65
2022/09/12 07:04:36;;;;;;;;;34.00;30.00;;;;;17.04;71.18;101520.91;5028851;28;9601;-65
2022/09/12 07:07:03;;;;;;;;;38.00;33.75;;;;;17.10;70.90;101526.56;5031020;28;9715;-66
2022/09/12 07:09:29;;;;;;;;;29.75;26.25;;;;;17.12;70.51;101514.38;5028136;28;10469;-65
2022/09/12 07:11:56;;;;;;;;;33.75;28.25;;;;;17.13;70.33;101523.38;5012431;28;9528;-65
2022/09/12 07:14:22;;;;;;;;;31.33;29.00;;;;;17.14;70.49;101520.44;5011806;28;9367;-66
2022/09/12 07:16:48;;;;;;;;;27.67;26.67;;;;;17.14;70.62;101536.78;5011510;28;9385;-65
2022/09/12 07:19:15;;;;;;;;;30.75;27.00;;;;;17.16;70.57;101531.09;5022957;28;9407;-65
2022/09/12 07:21:41;;;;;;;;;25.33;20.67;;;;;17.19;70.65;101527.94;4991397;28;9395;-66
2022/09/12 07:24:09;;;;;;;;;27.50;27.00;;;;;17.24;70.15;101528.09;5010759;28;9322;-65
2022/09/12 07:26:37;;;;;;;;;28.33;20.67;;;;;17.29;70.12;101528.25;5010562;28;9543;-66
2022/09/12 07:29:04;;;;;;;;;24.00;23.33;;;;;17.34;69.83;101522.16;5010710;28;9335;-65
2022/09/12 07:31:50;;;;;;;;;26.00;25.00;;;;;17.35;69.91;101521.13;5009377;28;9471;-65
2022/09/12 07:34:17;;;;;;;;;19.33;19.00;;;;;17.40;70.20;101533.00;5010661;28;9354;-65
2022/09/12 07:36:43;;;;;;;;;33.00;31.50;;;;;17.40;69.71;101522.09;5009968;28;9245;-66
2022/09/12 07:39:09;;;;;;;;;25.33;25.33;;;;;17.46;69.97;101528.53;5010313;28;9476;-66
2022/09/12 07:41:36;;;;;;;;;25.00;22.00;;;;;17.53;69.93;101526.59;5010046;28;9231;-65
2022/09/12 07:44:03;;;;;;;;;22.67;20.67;;;;;17.60;69.71;101523.81;5010494;28;9231;-65
2022/09/12 07:46:30;;;;;;;;;26.00;22.33;;;;;17.67;69.78;101522.69;5025001;28;9228;-65
2022/09/12 07:48:58;;;;;;;;;24.33;23.67;;;;;17.71;69.50;101518.47;5010420;28;9097;-64
2022/09/12 07:51:27;;;;;;;;;31.00;27.67;;;;;17.77;69.43;101517.59;5010443;28;9164;-66
2022/09/12 07:53:55;;;;;;;;;26.00;25.00;;;;;17.82;69.08;101519.63;5010581;28;9340;-65
2022/09/12 07:56:21;;;;;;;;;30.00;28.00;;;;;17.85;69.27;101518.34;5010399;28;9262;-66
2022/09/12 07:58:55;;;;;;;;;26.00;22.33;;;;;17.92;68.88;101522.69;5010499;28;10144;-65
2022/09/12 08:01:22;;;;;;;;;20.67;20.33;;;;;17.97;68.68;101509.19;5010527;28;9169;-66
2022/09/12 08:03:53;;;;;;;;;24.00;22.67;;;;;18.03;68.47;101515.66;5010636;28;9224;-66
2022/09/12 08:06:23;;;;;;;;;22.33;22.33;;;;;18.08;68.40;101514.97;5009828;28;9262;-66
2022/09/12 08:08:51;;;;;;;;;22.25;15.50;;;;;18.13;68.12;101526.00;5010873;28;9012;-65
2022/09/12 08:11:19;;;;;;;;;15.67;15.67;;;;;18.14;68.11;101517.59;5010604;28;9654;-66
2022/09/12 08:13:47;;;;;;;;;19.00;17.50;;;;;18.17;68.15;101519.88;5010716;28;9011;-65
2022/09/12 08:16:22;;;;;;;;;13.50;13.50;;;;;18.22;68.32;101521.91;5010650;28;9568;-66
2022/09/12 08:18:49;;;;;;;;;16.33;16.33;;;;;18.26;68.11;101518.50;5010680;28;8815;-66
2022/09/12 08:21:26;;;;;;;;;22.33;19.33;;;;;18.31;67.96;101519.69;5010675;28;8954;-66
2022/09/12 08:23:55;;;;;;;;;18.67;15.00;;;;;18.37;67.71;101526.97;5010341;28;9815;-66
2022/09/12 08:26:22;;;;;;;;;19.50;18.75;;;;;18.43;67.84;101531.50;5009775;28;9003;-66
2022/09/12 08:28:48;;;;;;;;;26.67;22.00;;;;;18.44;67.20;101530.44;5010170;28;9528;-65
2022/09/12 08:31:18;;;;;;;;;19.67;19.00;;;;;18.40;66.83;101532.81;5010964;28;9758;-65
2022/09/12 08:33:44;;;;;;;;;21.67;20.67;;;;;18.42;66.92;101529.84;5010544;28;9076;-65
2022/09/12 08:36:19;;;;;;;;;18.67;18.00;;;;;18.46;66.79;101533.75;5010887;28;9098;-66
2022/09/12 08:38:47;;;;;;;;;21.67;19.67;;;;;18.49;66.82;101536.88;5030118;28;9206;-66
2022/09/12 08:41:16;;;;;;;;;22.00;21.67;;;;;18.52;66.82;101541.03;5029875;28;9020;-66
2022/09/12 08:43:43;;;;;;;;;20.00;19.33;;;;;18.54;66.86;101537.00;5030093;28;9001;-65
2022/09/12 08:46:25;;;;;;;;;20.25;18.25;;;;;18.60;66.77;101532.53;5031530;28;8990;-65
2022/09/12 08:48:56;;;;;;;;;16.75;15.75;;;;;18.65;66.89;101529.13;4994485;28;8830;-65
2022/09/12 08:51:23;;;;;;;;;19.50;14.25;;;;;18.71;66.77;101526.31;4993159;28;9540;-66
2022/09/12 08:53:53;;;;;;;;;21.75;16.75;;;;;18.73;66.71;101523.38;4994667;28;8841;-66
2022/09/12 08:56:20;;;;;;;;;26.33;25.33;;;;;18.74;66.79;101520.41;4994172;28;8918;-65
2022/09/12 08:58:47;;;;;;;;;23.00;23.00;;;;;18.77;66.99;101524.56;4994161;28;8918;-65
2022/09/12 09:01:30;;;;;;;;;30.67;30.33;;;;;18.70;66.66;101530.09;5016269;28;8945;-66
2022/09/12 09:04:05;;;;;;;;;28.67;27.00;;;;;18.71;66.68;101523.59;5034003;28;9286;-65
2022/09/12 09:06:46;;;;;;;;;24.00;23.00;;;;;18.76;66.57;101522.91;5033333;28;9241;-65
2022/09/12 09:09:41;;;;;;;;;30.00;28.67;;;;;18.76;66.29;101523.75;5033538;28;9058;-66
2022/09/12 09:12:29;;;;;;;;;25.00;24.67;;;;;18.82;66.25;101526.59;5033387;28;9069;-65
2022/09/12 09:15:03;;;;;;;;;21.00;20.00;;;;;18.87;66.18;101518.53;5033923;28;8992;-66
2022/09/12 09:17:39;;;;;;;;;22.67;21.00;;;;;18.93;66.17;101517.63;5017560;28;8962;-66
2022/09/12 09:20:21;;;;;;;;;28.67;25.33;;;;;18.95;66.09;101520.94;5013533;28;8965;-66
2022/09/12 09:22:53;;;;;;;;;21.00;21.00;;;;;19.01;66.26;101525.47;5013470;28;8932;-66
2022/09/12 09:25:28;;;;;;;;;26.75;24.25;;;;;19.02;66.22;101511.59;5028335;28;8965;-65
2022/09/12 09:28:15;;;;;;;;;27.33;26.33;;;;;19.05;66.21;101504.84;5011899;28;8867;-65
2022/09/12 09:30:42;;;;;;;;;28.00;23.00;;;;;19.02;65.87;101505.28;5023868;28;8931;-64
2022/09/12 09:33:19;;;;;;;;;22.75;18.75;;;;;19.14;66.00;101517.06;5033129;28;8997;-65
2022/09/12 09:35:53;;;;;;;;;18.00;16.50;;;;;19.22;65.71;101502.25;5031800;28;9549;-65
2022/09/12 09:38:59;;;;;;;;;16.00;16.00;;;;;19.24;65.42;101503.69;5032546;28;8839;-66
2022/09/12 09:41:38;;;;;;;;;16.50;16.00;;;;;19.29;65.17;101497.50;5032603;28;8813;-65
2022/09/12 09:44:05;;;;;;;;;19.00;16.50;;;;;19.32;64.75;101498.91;5032782;28;8805;-65
2022/09/12 09:46:36;;;;;;;;;21.00;20.25;;;;;19.36;64.79;101500.09;5019465;28;8845;-64
2022/09/12 09:49:05;;;;;;;;;19.25;18.50;;;;;19.42;64.83;101491.00;5013290;28;8843;-65
2022/09/12 09:51:38;;;;;;;;;19.25;18.00;;;;;19.45;64.76;101494.09;5021752;28;8927;-65
2022/09/12 09:54:24;;;;;;;;;14.25;13.25;;;;;19.57;64.80;101494.09;5032794;28;8868;-65
2022/09/12 09:56:51;;;;;;;;;21.00;15.50;;;;;19.58;64.46;101492.19;5031729;28;8910;-65
2022/09/12 09:59:18;;;;;;;;;23.25;20.25;;;;;19.57;64.57;101485.88;5031882;28;8840;-65
2022/09/12 10:01:53;;;;;;;;;22.25;20.50;;;;;19.59;64.71;101480.19;5031304;28;8836;-65
2022/09/12 10:04:23;;;;;;;;;21.00;20.50;;;;;19.64;64.88;101483.88;5028818;28;8845;-65
2022/09/12 10:06:56;;;;;;;;;17.25;16.50;;;;;19.71;64.33;101481.84;5011534;28;9657;-65
2022/09/12 10:09:27;;;;;;;;;13.75;13.75;;;;;19.83;64.12;101470.09;5012281;28;8834;-65
2022/09/12 10:11:55;;;;;;;;;13.75;12.50;;;;;19.89;64.03;101471.84;5012388;28;8850;-65
2022/09/12 10:14:41;;;;;;;;;15.25;13.50;;;;;19.94;63.84;101461.03;5012309;28;8843;-65
2022/09/12 10:17:30;;;;;;;;;22.00;19.50;;;;;19.91;63.81;101464.25;5011793;28;8851;-65
2022/09/12 10:20:00;;;;;;;;;23.50;23.00;;;;;19.93;63.91;101456.63;5012297;28;8834;-65
2022/09/12 10:22:47;;;;;;;;;17.25;16.25;;;;;19.99;63.80;101453.75;5010815;28;8835;-65
2022/09/12 10:25:17;;;;;;;;;13.75;13.50;;;;;20.10;63.96;101451.25;5010735;28;8983;-65
2022/09/12 10:27:52;;;;;;;;;28.00;26.00;;;;;20.05;63.63;101459.31;5012770;28;8851;-65
2022/09/12 10:30:23;;;;;;;;;20.00;20.00;;;;;20.05;63.50;101454.69;5014439;28;8917;-65
2022/09/12 10:32:52;;;;;;;;;18.00;18.00;;;;;20.07;63.68;101441.63;5014441;28;8831;-65
2022/09/12 10:35:22;;;;;;;;;15.25;14.75;;;;;20.15;63.17;101448.63;5015477;28;8841;-65
2022/09/12 10:37:56;;;;;;;;;19.00;18.00;;;;;20.24;63.51;101450.69;5011415;28;9029;-64
2022/09/12 10:40:36;;;;;;;;;16.50;15.75;;;;;20.29;63.20;101440.94;5012132;28;8824;-66
2022/09/12 10:43:25;;;;;;;;;12.00;11.25;;;;;20.32;63.05;101440.47;5028130;28;8880;-65
2022/09/12 10:45:57;;;;;;;;;16.50;14.75;;;;;20.38;63.20;101436.75;5012623;28;8827;-65
2022/09/12 10:48:23;;;;;;;;;19.75;17.50;;;;;20.36;63.07;101438.91;5011285;28;9493;-65
2022/09/12 10:50:50;;;;;;;;;11.75;9.75;;;;;20.36;62.97;101438.91;5011931;28;8811;-65
2022/09/12 10:53:20;;;;;;;;;15.75;13.25;;;;;20.34;63.34;101435.59;5011832;28;8835;-64
2022/09/12 10:56:09;;;;;;;;;8.75;7.50;;;;;20.32;63.52;101430.34;5011949;28;8823;-67
2022/09/12 10:58:57;;;;;;;;;19.75;17.00;;;;;20.25;63.82;101438.72;5011957;28;8815;-65
2022/09/12 11:01:44;;;;;;;;;11.75;11.75;;;;;20.31;63.65;101436.91;5012246;28;8832;-65
2022/09/12 11:04:30;;;;;;;;;17.75;15.75;;;;;20.39;63.52;101433.78;5012382;28;8861;-65
2022/09/12 11:07:24;;;;;;;;;15.50;15.50;;;;;20.44;63.19;101439.31;5011226;28;9603;-66
2022/09/12 11:10:12;;;;;;;;;19.75;17.75;;;;;20.53;62.88;101426.09;5010944;28;8827;-65
2022/09/12 11:13:04;;;;;;;;;16.25;14.50;;;;;20.66;62.34;101433.16;5011319;28;8868;-66
2022/09/12 11:15:53;;;;;;;;;15.75;15.75;;;;;20.67;62.83;101430.19;5011126;28;8857;-65
2022/09/12 11:18:47;;;;;;;;;21.50;20.25;;;;;20.70;62.87;101426.13;5025881;28;8827;-65
2022/09/12 11:21:26;;;;;;;;;20.00;20.00;;;;;20.74;62.32;101430.88;5010077;28;8835;-66
2022/09/12 11:24:21;;;;;;;;;31.75;28.50;;;;;20.72;62.47;101426.72;5011354;28;8855;-65
2022/09/12 11:27:10;;;;;;;;;14.75;12.25;;;;;20.77;62.30;101415.03;5010877;28;9576;-65
2022/09/12 11:29:53;;;;;;;;;15.25;15.25;;;;;20.79;62.27;101416.44;5011233;28;8819;-65
2022/09/12 11:32:41;;;;;;;;;11.25;11.25;;;;;20.87;61.97;101418.78;5011385;28;8812;-65
2022/09/12 11:35:14;;;;;;;;;16.00;16.00;;;;;20.90;62.39;101422.91;5010951;28;8831;-65
2022/09/12 11:38:10;;;;;;;;;14.50;11.25;;;;;20.96;61.83;101424.66;5010666;28;8890;-65
2022/09/12 11:40:58;;;;;;;;;12.50;12.00;;;;;20.99;61.46;101419.50;5011016;28;8839;-66